KG-0042 weather

CLOSED Pokrovka/Ozero Issyk Kul Airport
Prokovka, Issyk Kul Region, Kyrgyzstan

Public forecast

Using degrees Celsius for public forecast. Weather courtesy of forecast.io.

METAR (pilot weather report)

Closest report is Almaty Airport, 73.9 nm (136.9 km) NW. Retrieved 2019/03/27 02:00 UTC (13 minutes ago):

UAAA 270200Z 09002MPS 9999 BKN200 07/00 Q1016 R88/65D NOSIG

TAF (pilot weather forecast)

Forecast is more than 12 hours old.

Closest forecast is Almaty Airport, 73.9 nm (136.9 km) NW. Retrieved 2019/03/26 00:18 UTC (1 day ago):

TAF TAF UAAA 262300Z 2700/2724 16004MPS 5000 BR FU SCT050CB BKN100 TX20/2708Z TN04/2701Z TEMPO 2700/2704 35003MPS 2500 BECMG 2704/2705 06005MPS 9999 NSW BECMG 2712/2713 18003MPS 3100 BR FU TEMPO 2714/2724 24004MPS 1500